Time;durP1;ratioP1;P1;durP2;ratioP2;P2;SDS_P1;SDS_P2;PMS_P1;PMS_P2;Temp;Humidity;BMP_temperature;BMP_pressure;BME280_temperature;BME280_humidity;BME280_pressure;Samples;Min_cycle;Max_cycle;Signal;HPM_P1;HPM_P2
2023/04/08 00:01:25;;;;;;;19.40;11.63;;;7.00;99.90;;;;;;5008252;28;20236;-82
2023/04/08 00:03:52;;;;;;;16.00;11.52;;;6.70;99.90;;;;;;5000710;28;20232;-83
2023/04/08 00:06:19;;;;;;;17.27;11.63;;;6.80;99.90;;;;;;5001028;28;20220;-83
2023/04/08 00:08:46;;;;;;;15.90;10.63;;;6.80;99.90;;;;;;5008057;28;20260;-82
2023/04/08 00:11:13;;;;;;;15.55;12.18;;;6.70;99.90;;;;;;5008850;28;20368;-83
2023/04/08 00:13:40;;;;;;;17.08;11.40;;;6.80;99.90;;;;;;5000301;28;20210;-83
2023/04/08 00:16:07;;;;;;;13.85;10.27;;;6.80;99.90;;;;;;4992247;28;20213;-83
2023/04/08 00:18:34;;;;;;;17.70;12.07;;;6.30;99.90;;;;;;5003548;28;20272;-82
2023/04/08 00:21:03;;;;;;;15.88;10.80;;;6.00;99.90;;;;;;5020053;28;20196;-82
2023/04/08 00:23:30;;;;;;;17.90;12.32;;;6.20;99.90;;;;;;5025442;28;20218;-82
2023/04/08 00:25:57;;;;;;;19.85;13.48;;;6.50;99.90;;;;;;5010200;28;20512;-83
2023/04/08 00:28:29;;;;;;;19.27;12.60;;;6.60;99.90;;;;;;5005055;28;20229;-82
2023/04/08 00:30:57;;;;;;;21.42;12.60;;;6.60;99.90;;;;;;5006170;28;20225;-83
2023/04/08 00:33:24;;;;;;;18.30;13.48;;;6.40;99.90;;;;;;5005351;28;20271;-82
2023/04/08 00:35:54;;;;;;;20.38;13.60;;;6.40;99.90;;;;;;5007807;28;20209;-83
2023/04/08 00:38:21;;;;;;;17.13;14.05;;;6.40;99.90;;;;;;5010341;28;20247;-82
2023/04/08 00:40:48;;;;;;;21.23;13.90;;;6.20;99.90;;;;;;5003761;28;20209;-83
2023/04/08 00:43:19;;;;;;;16.88;12.85;;;6.20;99.90;;;;;;4999839;28;20229;-83
2023/04/08 00:45:49;;;;;;;22.35;15.10;;;6.20;99.90;;;;;;5004492;28;20229;-82
2023/04/08 00:48:16;;;;;;;22.40;13.32;;;6.10;99.90;;;;;;5008396;28;20221;-84
2023/04/08 00:50:45;;;;;;;29.42;14.98;;;5.80;99.90;;;;;;5004560;28;20214;-84
2023/04/08 00:53:16;;;;;;;25.52;15.25;;;5.80;99.90;;;;;;5008781;28;20406;-84
2023/04/08 00:55:46;;;;;;;27.58;16.40;;;5.80;99.90;;;;;;5014496;28;20197;-84
2023/04/08 00:58:13;;;;;;;28.70;15.88;;;6.00;99.90;;;;;;5001664;28;20208;-82
2023/04/08 01:00:52;;;;;;;21.95;14.45;;;5.80;99.90;;;;;;5005534;28;20205;-81
2023/04/08 01:03:35;;;;;;;25.52;16.10;;;5.80;99.90;;;;;;5000475;28;20280;-81
2023/04/08 01:06:49;;;;;;;27.67;17.38;;;5.80;99.90;;;;;;5002187;28;20208;-82
2023/04/08 01:09:19;;;;;;;34.28;19.10;;;5.80;99.90;;;;;;5005701;28;20267;-83
2023/04/08 01:11:53;;;;;;;27.45;16.50;;;5.80;99.90;;;;;;5003204;28;20196;-81
2023/04/08 01:14:25;;;;;;;31.45;18.65;;;5.80;99.90;;;;;;5009237;28;20193;-82
2023/04/08 01:16:55;;;;;;;36.03;18.45;;;5.80;99.90;;;;;;5005018;28;20370;-83
2023/04/08 01:19:32;;;;;;;33.03;19.35;;;5.70;99.90;;;;;;4998614;28;20383;-83
2023/04/08 01:22:18;;;;;;;30.42;18.50;;;5.70;99.90;;;;;;4998979;28;20209;-83
2023/04/08 01:24:46;;;;;;;31.45;19.10;;;5.80;99.90;;;;;;4997600;28;20351;-81
2023/04/08 01:27:14;;;;;;;34.92;19.70;;;5.70;99.90;;;;;;5007148;28;20233;-81
2023/04/08 01:29:42;;;;;;;33.08;19.15;;;5.70;99.90;;;;;;4999464;28;20208;-83
2023/04/08 01:32:10;;;;;;;30.88;21.45;;;5.70;99.90;;;;;;4995089;28;20219;-84
2023/04/08 01:34:39;;;;;;;34.53;19.30;;;5.70;99.90;;;;;;5008330;28;20197;-84
2023/04/08 01:37:07;;;;;;;35.55;20.58;;;5.70;99.90;;;;;;5001775;28;20204;-82
2023/04/08 01:39:35;;;;;;;37.22;20.55;;;5.70;99.90;;;;;;5005536;28;20210;-82
2023/04/08 01:42:03;;;;;;;37.35;21.67;;;5.70;99.90;;;;;;5009008;28;20420;-83
2023/04/08 01:44:32;;;;;;;30.60;19.58;;;5.70;99.90;;;;;;5007417;28;20683;-82
2023/04/08 01:47:00;;;;;;;29.75;17.67;;;5.70;99.90;;;;;;5008632;28;20210;-82
2023/04/08 01:49:29;;;;;;;29.52;18.38;;;5.70;99.90;;;;;;4998707;28;20233;-82
2023/04/08 01:51:57;;;;;;;34.97;20.55;;;5.60;99.90;;;;;;5001934;28;20311;-82
2023/04/08 01:54:24;;;;;;;31.02;17.10;;;5.60;99.90;;;;;;4998212;28;20207;-83
2023/04/08 01:56:56;;;;;;;33.50;19.80;;;5.70;99.90;;;;;;5010863;28;20244;-83
2023/04/08 01:59:28;;;;;;;36.00;20.75;;;5.50;99.90;;;;;;4991792;28;20262;-81
2023/04/08 02:01:56;;;;;;;28.65;19.00;;;5.40;99.90;;;;;;5001924;28;20219;-79
2023/04/08 02:04:22;;;;;;;31.38;19.55;;;5.30;99.90;;;;;;5009602;28;20232;-83
2023/04/08 02:06:51;;;;;;;33.35;22.25;;;5.20;99.90;;;;;;5014162;28;20235;-83
2023/04/08 02:09:18;;;;;;;32.90;22.27;;;5.20;99.90;;;;;;5011924;28;20410;-83
2023/04/08 02:11:45;;;;;;;32.65;21.15;;;5.10;99.90;;;;;;5007563;28;20236;-85
2023/04/08 02:14:12;;;;;;;33.17;20.83;;;5.10;99.90;;;;;;5005478;28;20493;-82
2023/04/08 02:16:47;;;;;;;29.33;19.50;;;5.10;99.90;;;;;;5009743;28;20205;-85
2023/04/08 02:19:21;;;;;;;31.23;20.40;;;5.10;99.90;;;;;;4998277;28;20298;-83
2023/04/08 02:21:56;;;;;;;34.75;21.63;;;4.90;99.90;;;;;;5007035;28;20252;-82
2023/04/08 02:24:24;;;;;;;28.67;20.25;;;4.90;99.90;;;;;;4997145;28;20208;-83
2023/04/08 02:26:54;;;;;;;27.83;18.15;;;4.90;99.90;;;;;;4997353;28;20201;-82
2023/04/08 02:29:23;;;;;;;30.15;20.42;;;4.90;99.90;;;;;;5001467;28;20394;-84
2023/04/08 02:31:51;;;;;;;36.22;20.95;;;4.90;99.90;;;;;;4999799;28;20529;-82
2023/04/08 02:34:21;;;;;;;27.95;19.00;;;4.90;99.90;;;;;;5009797;28;20288;-84
2023/04/08 02:36:49;;;;;;;28.13;19.10;;;4.90;99.90;;;;;;5001323;28;20390;-82
2023/04/08 02:39:17;;;;;;;26.67;19.08;;;4.90;99.90;;;;;;4999554;28;20220;-85
2023/04/08 02:41:43;;;;;;;26.60;16.65;;;4.80;99.90;;;;;;5007995;28;20212;-81
2023/04/08 02:44:10;;;;;;;25.35;18.20;;;4.80;99.90;;;;;;5007903;28;20212;-83
2023/04/08 02:46:37;;;;;;;31.73;19.27;;;4.80;99.90;;;;;;5013559;28;20565;-82
2023/04/08 02:49:04;;;;;;;23.90;17.55;;;4.90;99.90;;;;;;5002359;28;20237;-81
2023/04/08 02:51:32;;;;;;;25.25;17.05;;;4.80;99.90;;;;;;5006835;28;20272;-81
2023/04/08 02:53:59;;;;;;;25.17;19.40;;;4.80;99.90;;;;;;5000460;28;20212;-82
2023/04/08 02:56:25;;;;;;;23.90;16.60;;;4.80;99.90;;;;;;5003682;28;20205;-83
2023/04/08 02:58:54;;;;;;;27.70;16.88;;;4.80;99.90;;;;;;5000559;28;20207;-81
2023/04/08 03:01:21;;;;;;;21.75;16.35;;;4.80;99.90;;;;;;5007693;28;20207;-81
2023/04/08 03:03:47;;;;;;;23.33;16.85;;;4.80;99.90;;;;;;5005670;28;20213;-83
2023/04/08 03:06:14;;;;;;;23.65;15.60;;;4.90;99.90;;;;;;5000111;28;20296;-83
2023/04/08 03:08:41;;;;;;;22.60;16.17;;;4.80;99.90;;;;;;5000339;28;20239;-80
2023/04/08 03:11:08;;;;;;;27.58;15.75;;;4.80;99.90;;;;;;5011552;28;20270;-82
2023/04/08 03:13:36;;;;;;;26.35;17.35;;;4.70;99.90;;;;;;5007923;28;20248;-82
2023/04/08 03:16:03;;;;;;;24.48;16.20;;;4.80;99.90;;;;;;5001759;28;20628;-83
2023/04/08 03:18:30;;;;;;;23.67;17.30;;;4.70;99.90;;;;;;5009066;28;20274;-83
2023/04/08 03:20:57;;;;;;;20.25;14.50;;;4.70;99.90;;;;;;5010206;28;20205;-81
2023/04/08 03:23:24;;;;;;;23.02;16.60;;;4.70;99.90;;;;;;5002046;28;20209;-84
2023/04/08 03:25:51;;;;;;;22.52;15.35;;;4.60;99.90;;;;;;5009615;28;20232;-84
2023/04/08 03:28:18;;;;;;;22.88;18.02;;;4.70;99.90;;;;;;5003352;28;20252;-85
2023/04/08 03:30:45;;;;;;;29.60;17.15;;;4.60;99.90;;;;;;5016844;28;20201;-83
2023/04/08 03:33:12;;;;;;;25.65;17.48;;;4.60;99.90;;;;;;5012761;28;20206;-80
2023/04/08 03:35:39;;;;;;;23.23;16.80;;;4.70;99.90;;;;;;5008576;28;20269;-84
2023/04/08 03:38:06;;;;;;;24.48;14.65;;;4.70;99.90;;;;;;5011673;28;20283;-83
2023/04/08 03:40:33;;;;;;;23.20;16.60;;;4.70;99.90;;;;;;5009865;28;20685;-85
2023/04/08 03:43:00;;;;;;;22.45;16.60;;;4.70;99.90;;;;;;5019814;28;20216;-83
2023/04/08 03:45:27;;;;;;;23.70;16.58;;;4.80;99.90;;;;;;5009766;28;20205;-86
2023/04/08 03:47:54;;;;;;;21.67;15.00;;;4.70;99.90;;;;;;5010573;28;20243;-82
2023/04/08 03:50:21;;;;;;;18.73;13.63;;;4.80;99.90;;;;;;5012524;28;20225;-83
2023/04/08 03:52:51;;;;;;;18.65;13.68;;;4.70;99.90;;;;;;5021429;28;20249;-85
2023/04/08 03:55:18;;;;;;;20.30;16.45;;;4.70;99.90;;;;;;5017746;28;20185;-82
2023/04/08 03:57:50;;;;;;;22.27;15.60;;;4.70;99.90;;;;;;5004610;28;20209;-84
2023/04/08 04:00:17;;;;;;;17.60;13.43;;;4.70;99.90;;;;;;5007739;28;20198;-83
2023/04/08 04:02:46;;;;;;;17.00;14.27;;;4.70;99.90;;;;;;4998959;28;20379;-81
2023/04/08 04:05:13;;;;;;;18.35;14.15;;;4.70;99.90;;;;;;5007362;28;20252;-83
2023/04/08 04:07:40;;;;;;;20.10;13.82;;;4.70;99.90;;;;;;5001208;28;20205;-83
2023/04/08 04:10:10;;;;;;;17.17;13.50;;;4.80;99.90;;;;;;5000502;28;20201;-82
2023/04/08 04:12:37;;;;;;;17.92;14.85;;;4.70;99.90;;;;;;4993509;28;20198;-82
2023/04/08 04:15:05;;;;;;;18.13;14.32;;;4.80;99.90;;;;;;5003418;28;20209;-83
2023/04/08 04:17:32;;;;;;;19.10;13.50;;;4.80;99.90;;;;;;5005500;28;20460;-84
2023/04/08 04:20:02;;;;;;;20.05;14.32;;;4.70;99.90;;;;;;5017187;28;20228;-84
2023/04/08 04:22:28;;;;;;;17.40;14.73;;;4.70;99.90;;;;;;5013740;28;20208;-81
2023/04/08 04:24:55;;;;;;;20.75;14.27;;;4.70;99.90;;;;;;5006302;28;20255;-83
2023/04/08 04:27:22;;;;;;;22.67;16.58;;;4.70;99.90;;;;;;5005406;28;20442;-84
2023/04/08 04:29:49;;;;;;;21.42;16.83;;;4.70;99.90;;;;;;5003103;28;20256;-84
2023/04/08 04:32:18;;;;;;;22.63;16.50;;;4.70;99.90;;;;;;5020409;28;20243;-83
2023/04/08 04:34:50;;;;;;;21.13;15.55;;;4.70;99.90;;;;;;5007866;28;20215;-82
2023/04/08 04:37:17;;;;;;;23.23;16.48;;;4.80;99.90;;;;;;5012610;28;20204;-84
2023/04/08 04:39:46;;;;;;;20.27;14.73;;;4.70;99.90;;;;;;4999157;28;20406;-81
2023/04/08 04:42:13;;;;;;;23.02;16.98;;;4.80;99.90;;;;;;5003560;28;20507;-85
2023/04/08 04:44:40;;;;;;;19.40;14.70;;;4.70;99.90;;;;;;5019118;28;20196;-83
2023/04/08 04:47:06;;;;;;;22.75;17.42;;;4.80;99.90;;;;;;5005194;28;20464;-84
2023/04/08 04:49:33;;;;;;;23.38;15.82;;;4.80;99.90;;;;;;5010184;28;20236;-85
2023/04/08 04:52:04;;;;;;;24.08;15.73;;;4.80;99.90;;;;;;4996783;28;20218;-82
2023/04/08 04:54:31;;;;;;;21.25;14.55;;;4.80;99.90;;;;;;5004217;28;20209;-84
2023/04/08 04:57:00;;;;;;;20.70;16.95;;;4.70;99.90;;;;;;5006826;28;20208;-84
2023/04/08 04:59:27;;;;;;;18.38;13.85;;;4.70;99.90;;;;;;4998420;28;20523;-83
2023/04/08 05:01:59;;;;;;;21.02;14.88;;;4.70;99.90;;;;;;5000140;28;20402;-81
2023/04/08 05:04:27;;;;;;;24.92;17.45;;;4.70;99.90;;;;;;5005786;28;20502;-80
2023/04/08 05:06:53;;;;;;;19.05;16.33;;;4.70;99.90;;;;;;5002003;28;20229;-86
2023/04/08 05:09:22;;;;;;;20.88;15.02;;;4.60;99.90;;;;;;5014492;28;20299;-85
2023/04/08 05:11:49;;;;;;;21.35;14.75;;;4.50;99.90;;;;;;4992530;28;20411;-85
2023/04/08 05:14:16;;;;;;;20.45;16.25;;;4.60;99.90;;;;;;4998450;28;20212;-85
2023/04/08 05:16:43;;;;;;;20.65;14.90;;;4.50;99.90;;;;;;4999159;28;20458;-80
2023/04/08 05:19:10;;;;;;;17.85;12.73;;;4.60;99.90;;;;;;4990890;28;20264;-81
2023/04/08 05:21:39;;;;;;;21.13;15.45;;;4.60;99.90;;;;;;4999610;28;20411;-87
2023/04/08 05:24:09;;;;;;;16.10;14.35;;;4.60;99.90;;;;;;5000171;28;20201;-82
2023/04/08 05:26:37;;;;;;;20.90;15.82;;;4.70;99.90;;;;;;5016230;28;20319;-83
2023/04/08 05:29:03;;;;;;;17.38;14.73;;;4.60;99.90;;;;;;5010400;28;20232;-81
2023/04/08 05:31:31;;;;;;;17.25;14.30;;;4.60;99.90;;;;;;5013307;28;20216;-87
2023/04/08 05:33:58;;;;;;;24.52;13.82;;;4.60;99.90;;;;;;5002426;28;20232;-83
2023/04/08 05:36:27;;;;;;;20.45;13.45;;;4.50;99.90;;;;;;5005962;28;20208;-84
2023/04/08 05:38:57;;;;;;;20.30;16.13;;;4.60;99.90;;;;;;5000015;28;20213;-85
2023/04/08 05:41:24;;;;;;;21.40;14.25;;;4.70;99.90;;;;;;5003875;28;20279;-84
2023/04/08 05:43:52;;;;;;;20.73;15.98;;;4.70;99.90;;;;;;5002618;28;20348;-86
2023/04/08 05:46:20;;;;;;;18.15;15.40;;;4.70;99.90;;;;;;4997349;28;20205;-86
2023/04/08 05:48:50;;;;;;;19.60;14.15;;;4.70;99.90;;;;;;5003187;28;20537;-83
2023/04/08 05:51:18;;;;;;;16.20;12.48;;;4.70;99.90;;;;;;5006497;28;20225;-82
2023/04/08 05:53:45;;;;;;;17.00;11.68;;;4.70;99.90;;;;;;5004324;28;20208;-88
2023/04/08 05:56:16;;;;;;;15.35;11.77;;;4.70;99.90;;;;;;5006791;28;20204;-86
2023/04/08 05:58:42;;;;;;;14.27;10.95;;;4.60;99.90;;;;;;5004698;28;20208;-84
2023/04/08 06:01:09;;;;;;;19.00;14.38;;;4.70;99.90;;;;;;5010814;28;20212;-84
2023/04/08 06:03:42;;;;;;;20.02;12.35;;;4.70;99.90;;;;;;4997565;28;20200;-88
2023/04/08 06:06:12;;;;;;;15.90;12.10;;;4.70;99.90;;;;;;4992617;28;20207;-86
2023/04/08 06:08:40;;;;;;;13.10;10.65;;;4.80;99.90;;;;;;4999444;28;20225;-83
2023/04/08 06:11:07;;;;;;;19.35;14.20;;;4.90;99.90;;;;;;5005946;28;20206;-85
2023/04/08 06:13:33;;;;;;;15.82;13.20;;;4.90;99.90;;;;;;5000631;28;20205;-83
2023/04/08 06:16:15;;;;;;;14.88;12.48;;;5.00;99.90;;;;;;5010762;28;20520;-82
2023/04/08 06:18:47;;;;;;;17.17;13.15;;;4.90;99.90;;;;;;5001975;28;20502;-85
2023/04/08 06:21:16;;;;;;;17.40;14.55;;;4.90;99.90;;;;;;5014815;28;20270;-84
2023/04/08 06:23:45;;;;;;;17.05;12.80;;;4.90;99.90;;;;;;5011318;28;20224;-81
2023/04/08 06:26:12;;;;;;;15.85;11.07;;;5.00;99.90;;;;;;5015427;28;20268;-82
2023/04/08 06:28:41;;;;;;;16.00;13.15;;;4.90;99.90;;;;;;5002526;28;20228;-85
2023/04/08 06:31:17;;;;;;;16.40;13.05;;;5.00;99.90;;;;;;5009158;28;20577;-85
2023/04/08 06:33:44;;;;;;;23.02;14.43;;;5.10;99.90;;;;;;5001264;28;20469;-82
2023/04/08 06:36:19;;;;;;;21.42;15.10;;;5.10;99.90;;;;;;4995389;28;20201;-84
2023/04/08 06:38:46;;;;;;;23.35;14.73;;;5.10;99.90;;;;;;5002074;28;20421;-86
2023/04/08 06:41:13;;;;;;;17.67;13.43;;;5.10;99.90;;;;;;5009723;28;20219;-84
2023/04/08 06:43:44;;;;;;;19.92;15.13;;;5.30;99.90;;;;;;4997399;28;20245;-81
2023/04/08 06:46:13;;;;;;;16.88;12.23;;;5.40;99.90;;;;;;4999596;28;20404;-80
2023/04/08 06:48:39;;;;;;;16.02;12.80;;;5.70;99.90;;;;;;5005141;28;20233;-82
2023/04/08 06:51:06;;;;;;;20.13;15.07;;;5.70;99.90;;;;;;5013099;28;20551;-82
2023/04/08 06:53:34;;;;;;;16.98;12.82;;;5.90;99.90;;;;;;4985470;28;20261;-81
2023/04/08 06:56:00;;;;;;;16.70;12.75;;;6.00;99.90;;;;;;5008301;28;20210;-79
2023/04/08 06:58:28;;;;;;;16.85;12.80;;;6.40;99.90;;;;;;4994386;28;20604;-81
2023/04/08 07:00:55;;;;;;;15.25;12.55;;;6.90;99.90;;;;;;5003358;28;20426;-79
2023/04/08 07:03:24;;;;;;;16.35;10.48;;;6.70;99.90;;;;;;5008141;28;20505;-82
2023/04/08 07:05:51;;;;;;;17.17;11.77;;;6.40;99.90;;;;;;5000301;28;20227;-80
2023/04/08 07:08:18;;;;;;;15.20;11.02;;;6.40;99.90;;;;;;4998405;28;20208;-81
2023/04/08 07:10:46;;;;;;;17.27;11.70;;;6.40;99.90;;;;;;5000884;28;20261;-80
2023/04/08 07:13:12;;;;;;;13.25;10.75;;;6.60;99.90;;;;;;5001273;28;20228;-81
2023/04/08 07:15:40;;;;;;;12.43;11.10;;;6.30;99.90;;;;;;5005742;28;20206;-82
2023/04/08 07:18:07;;;;;;;13.05;10.85;;;6.50;99.90;;;;;;5004517;28;20557;-82
2023/04/08 07:20:37;;;;;;;14.50;11.73;;;6.60;99.90;;;;;;5001094;28;20383;-84
2023/04/08 07:23:04;;;;;;;17.00;11.55;;;6.50;99.90;;;;;;5004615;28;20371;-82
2023/04/08 07:25:33;;;;;;;16.50;12.15;;;7.00;99.90;;;;;;5002965;28;20220;-83
2023/04/08 07:28:00;;;;;;;16.52;10.40;;;6.90;99.90;;;;;;5006994;28;20204;-82
2023/04/08 07:30:27;;;;;;;15.55;11.50;;;6.60;99.90;;;;;;5003548;28;20229;-81
2023/04/08 07:32:54;;;;;;;13.00;10.65;;;6.50;99.90;;;;;;5013814;28;20212;-80
2023/04/08 07:35:23;;;;;;;13.52;10.63;;;6.30;99.90;;;;;;5002047;28;20206;-82
2023/04/08 07:37:51;;;;;;;16.15;10.93;;;6.30;99.90;;;;;;5011942;28;20494;-84
2023/04/08 07:40:19;;;;;;;15.75;12.05;;;6.30;99.90;;;;;;5000044;28;20205;-87
2023/04/08 07:42:48;;;;;;;15.75;12.10;;;6.40;99.90;;;;;;5006737;28;20198;-82
2023/04/08 07:45:15;;;;;;;12.25;10.95;;;6.60;99.90;;;;;;5010000;28;20521;-81
2023/04/08 07:47:42;;;;;;;13.63;9.13;;;6.90;99.90;;;;;;4995758;28;20210;-82
2023/04/08 07:50:10;;;;;;;16.85;10.98;;;7.10;99.90;;;;;;5005661;28;20252;-80
2023/04/08 07:52:37;;;;;;;12.02;10.32;;;7.10;99.90;;;;;;5009810;28;20549;-81
2023/04/08 07:55:05;;;;;;;14.80;10.13;;;7.40;99.90;;;;;;5004263;28;20271;-81
2023/04/08 07:57:32;;;;;;;12.90;9.02;;;7.30;99.90;;;;;;4994162;28;20277;-83
2023/04/08 07:59:59;;;;;;;11.43;8.48;;;7.20;99.90;;;;;;5012036;28;20213;-82
2023/04/08 08:02:26;;;;;;;13.55;8.95;;;7.30;99.90;;;;;;5004576;28;20206;-81
2023/04/08 08:04:53;;;;;;;13.65;10.90;;;7.20;99.90;;;;;;5004317;28;20362;-82
2023/04/08 08:07:21;;;;;;;12.00;9.95;;;7.30;99.90;;;;;;5000256;28;20221;-81
2023/04/08 08:09:48;;;;;;;12.93;9.52;;;7.60;99.90;;;;;;4998428;28;20399;-78
2023/04/08 08:12:15;;;;;;;11.50;9.57;;;7.30;99.90;;;;;;5006886;28;20212;-77
2023/04/08 08:14:41;;;;;;;14.80;10.93;;;7.00;99.90;;;;;;5002360;28;20197;-84
2023/04/08 08:17:08;;;;;;;12.02;9.65;;;7.20;99.90;;;;;;4996660;28;20568;-82
2023/04/08 08:19:37;;;;;;;13.13;11.45;;;7.40;99.90;;;;;;5000804;28;20221;-83
2023/04/08 08:22:05;;;;;;;13.13;11.05;;;7.60;99.90;;;;;;5009954;28;20268;-80
2023/04/08 08:24:32;;;;;;;14.10;9.50;;;8.10;99.90;;;;;;4990989;28;20202;-83
2023/04/08 08:27:00;;;;;;;12.02;9.63;;;7.90;99.90;;;;;;5009178;28;20225;-82
2023/04/08 08:29:28;;;;;;;9.85;8.48;;;7.80;99.90;;;;;;5018327;28;20231;-83
2023/04/08 08:31:55;;;;;;;13.70;10.40;;;7.80;99.90;;;;;;5022647;28;20204;-85
2023/04/08 08:34:22;;;;;;;11.77;8.85;;;7.80;99.90;;;;;;5009450;28;20189;-80
2023/04/08 08:36:50;;;;;;;14.52;9.93;;;7.60;99.90;;;;;;5016573;28;20201;-85
2023/04/08 08:39:19;;;;;;;11.48;8.85;;;7.70;99.90;;;;;;5001016;28;20235;-86
2023/04/08 08:41:46;;;;;;;12.85;8.63;;;7.80;99.90;;;;;;4999432;28;20272;-83
2023/04/08 08:44:13;;;;;;;15.40;10.15;;;7.70;99.90;;;;;;5017692;28;20268;-86
2023/04/08 08:46:45;;;;;;;14.68;10.65;;;7.80;99.90;;;;;;5016391;28;20206;-83
2023/04/08 08:49:12;;;;;;;11.65;10.43;;;8.10;99.90;;;;;;5012906;28;20228;-82
2023/04/08 08:51:41;;;;;;;11.15;9.32;;;7.90;99.90;;;;;;5005762;28;20206;-82
2023/04/08 08:54:07;;;;;;;12.27;8.27;;;7.90;99.90;;;;;;5021645;28;20185;-80
2023/04/08 08:56:35;;;;;;;11.35;9.45;;;8.30;99.90;;;;;;5014802;28;20229;-82
2023/04/08 08:59:02;;;;;;;10.55;9.40;;;8.60;99.90;;;;;;5007762;28;20206;-82
2023/04/08 09:01:30;;;;;;;11.48;9.00;;;8.80;99.90;;;;;;5014970;28;20233;-83
2023/04/08 09:04:08;;;;;;;8.57;7.72;;;8.90;99.90;;;;;;5012777;28;20193;-83
2023/04/08 09:06:36;;;;;;;9.48;8.43;;;8.60;99.90;;;;;;5013960;28;20223;-79
2023/04/08 09:09:10;;;;;;;11.25;9.30;;;8.30;99.90;;;;;;5003877;28;20248;-83
2023/04/08 09:11:44;;;;;;;11.52;9.25;;;8.30;99.90;;;;;;5003139;28;20240;-83
2023/04/08 09:14:23;;;;;;;10.88;8.52;;;8.10;99.90;;;;;;4995477;28;20513;-83
2023/04/08 09:16:51;;;;;;;10.45;9.13;;;7.90;99.90;;;;;;4993270;28;20252;-82
2023/04/08 09:19:18;;;;;;;9.52;8.52;;;7.80;99.90;;;;;;5009880;28;20597;-83
2023/04/08 09:22:07;;;;;;;13.48;8.43;;;7.80;99.90;;;;;;5009108;28;20205;-85
2023/04/08 09:24:38;;;;;;;8.65;7.75;;;7.80;99.90;;;;;;4998773;28;20366;-85
2023/04/08 09:27:05;;;;;;;12.30;9.70;;;7.70;99.90;;;;;;4996812;28;20244;-81
2023/04/08 09:29:33;;;;;;;11.20;8.57;;;8.10;99.90;;;;;;4992488;28;20358;-81
2023/04/08 09:32:04;;;;;;;10.07;8.98;;;8.60;99.90;;;;;;5008831;28;20446;-85
2023/04/08 09:34:33;;;;;;;12.25;9.48;;;8.90;99.90;;;;;;5003899;28;20212;-82
2023/04/08 09:37:00;;;;;;;22.20;10.07;;;8.90;99.90;;;;;;5000411;28;20334;-82
2023/04/08 09:39:27;;;;;;;11.98;9.85;;;9.10;99.90;;;;;;4998718;28;20259;-82
2023/04/08 09:42:00;;;;;;;13.02;10.73;;;8.80;99.90;;;;;;4998501;28;20208;-82
2023/04/08 09:44:28;;;;;;;10.95;9.73;;;8.70;99.90;;;;;;5003299;28;20259;-81
2023/04/08 09:47:13;;;;;;;13.88;9.80;;;8.50;99.90;;;;;;5013771;28;20191;-85
2023/04/08 09:49:55;;;;;;;14.52;11.02;;;8.40;99.90;;;;;;5004932;28;20233;-83
2023/04/08 09:52:45;;;;;;;11.88;9.63;;;8.20;99.90;;;;;;4998489;28;20205;-83
2023/04/08 09:55:13;;;;;;;13.60;10.52;;;8.30;99.90;;;;;;5009580;28;20207;-81
2023/04/08 09:57:57;;;;;;;14.40;11.40;;;8.40;99.90;;;;;;4994511;28;20418;-84
2023/04/08 10:00:31;;;;;;;11.85;10.75;;;8.70;99.90;;;;;;4998728;28;20544;-84
2023/04/08 10:03:25;;;;;;;11.27;9.07;;;8.60;99.90;;;;;;4999243;28;20271;-81
2023/04/08 10:05:55;;;;;;;11.45;9.57;;;8.80;99.90;;;;;;5004374;28;20247;-80
2023/04/08 10:08:25;;;;;;;10.02;9.02;;;8.70;99.90;;;;;;5001011;28;20205;-82
2023/04/08 10:10:55;;;;;;;10.43;8.70;;;9.00;99.90;;;;;;5001483;28;20229;-82
2023/04/08 10:13:23;;;;;;;9.63;8.65;;;8.80;99.90;;;;;;5002119;28;20240;-82
2023/04/08 10:15:49;;;;;;;12.27;9.32;;;8.70;99.90;;;;;;5002942;28;20426;-84
2023/04/08 10:18:20;;;;;;;11.85;9.50;;;8.50;99.90;;;;;;4997908;28;20359;-83
2023/04/08 10:20:48;;;;;;;13.13;9.57;;;8.40;99.90;;;;;;5002589;28;20380;-83
2023/04/08 10:23:16;;;;;;;16.10;9.93;;;8.40;99.90;;;;;;5005998;28;20267;-82
2023/04/08 10:25:45;;;;;;;10.02;8.95;;;8.60;99.90;;;;;;4989248;28;20221;-84
2023/04/08 10:28:18;;;;;;;12.57;9.15;;;8.70;99.90;;;;;;4997999;28;20206;-83
2023/04/08 10:30:47;;;;;;;11.27;8.50;;;8.80;99.90;;;;;;5002237;28;20232;-84
2023/04/08 10:33:15;;;;;;;12.70;10.82;;;9.00;99.90;;;;;;4993612;28;20233;-79
2023/04/08 10:35:47;;;;;;;21.15;13.50;;;9.00;99.90;;;;;;4996280;28;20206;-82
2023/04/08 10:38:18;;;;;;;12.60;9.15;;;9.30;99.90;;;;;;4997641;28;20206;-84
2023/04/08 10:40:48;;;;;;;11.18;9.38;;;9.90;99.90;;;;;;5004227;28;20209;-85
2023/04/08 10:43:15;;;;;;;10.57;9.48;;;9.80;99.90;;;;;;5014085;28;20266;-82
2023/04/08 10:45:43;;;;;;;10.43;9.32;;;10.40;99.90;;;;;;5005322;28;20210;-83
2023/04/08 10:48:18;;;;;;;10.48;8.93;;;11.00;99.90;;;;;;4995070;28;20300;-85
2023/04/08 10:51:03;;;;;;;10.85;9.75;;;11.30;99.90;;;;;;4990309;28;20222;-84
2023/04/08 10:53:32;;;;;;;16.30;10.63;;;11.30;99.90;;;;;;5001280;28;20409;-83
2023/04/08 10:56:18;;;;;;;16.23;9.05;;;11.60;99.90;;;;;;5001442;28;20256;-83
2023/04/08 10:58:50;;;;;;;13.10;10.52;;;11.50;99.90;;;;;;4998610;28;20274;-84
2023/04/08 11:01:18;;;;;;;15.90;11.88;;;11.70;99.90;;;;;;4990239;28;20217;-86
2023/04/08 11:03:45;;;;;;;11.52;9.20;;;11.50;99.90;;;;;;5005077;28;20447;-83
2023/04/08 11:06:12;;;;;;;14.20;10.68;;;11.70;99.90;;;;;;5011808;28;20511;-84
2023/04/08 11:08:40;;;;;;;11.93;10.45;;;12.00;99.90;;;;;;5005398;28;20204;-86
2023/04/08 11:11:08;;;;;;;13.30;9.30;;;11.80;99.90;;;;;;5002393;28;20231;-86
2023/04/08 11:13:39;;;;;;;13.35;9.98;;;11.90;99.90;;;;;;4998395;28;20216;-85
2023/04/08 11:16:18;;;;;;;15.80;9.88;;;11.40;99.90;;;;;;5007056;28;20228;-84
2023/04/08 11:18:45;;;;;;;15.90;10.73;;;11.10;99.90;;;;;;4996273;28;20515;-84
2023/04/08 11:21:15;;;;;;;13.05;9.25;;;10.90;99.90;;;;;;4996747;28;20242;-85
2023/04/08 11:23:42;;;;;;;13.45;9.80;;;10.90;99.90;;;;;;5006004;28;20214;-82
2023/04/08 11:26:10;;;;;;;12.75;10.23;;;10.50;99.90;;;;;;5008903;28;20213;-82
2023/04/08 11:28:39;;;;;;;12.98;10.77;;;10.80;99.90;;;;;;4996138;28;20244;-84
2023/04/08 11:31:07;;;;;;;12.55;9.95;;;11.50;99.90;;;;;;4998686;28;20243;-83
2023/04/08 11:33:35;;;;;;;13.75;10.27;;;11.00;99.90;;;;;;4996599;28;20444;-82
2023/04/08 11:36:07;;;;;;;15.63;12.20;;;10.50;99.90;;;;;;5010344;28;20211;-83
2023/04/08 11:38:40;;;;;;;12.85;10.40;;;11.00;99.90;;;;;;5000848;28;20393;-83
2023/04/08 11:41:07;;;;;;;13.35;10.70;;;11.20;99.90;;;;;;4999995;28;20214;-82
2023/04/08 11:43:35;;;;;;;11.43;10.23;;;11.40;99.90;;;;;;5002843;28;20208;-83
2023/04/08 11:46:13;;;;;;;16.25;9.75;;;10.90;99.90;;;;;;4998465;28;20204;-83
2023/04/08 11:49:00;;;;;;;12.35;9.57;;;10.40;99.90;;;;;;5007058;28;20209;-85
2023/04/08 11:51:28;;;;;;;11.77;10.00;;;10.20;99.90;;;;;;4998527;28;20254;-83
2023/04/08 11:53:55;;;;;;;12.80;9.50;;;10.30;99.90;;;;;;4999683;28;20217;-81
2023/04/08 11:56:23;;;;;;;12.85;9.93;;;10.40;99.90;;;;;;5013398;28;20260;-83
2023/04/08 11:58:51;;;;;;;11.90;10.30;;;10.50;99.90;;;;;;5008024;28;20545;-83
2023/04/08 12:01:19;;;;;;;13.85;9.40;;;11.00;99.90;;;;;;4998349;28;20492;-83
2023/04/08 12:04:00;;;;;;;25.30;20.75;;;11.40;99.90;;;;;;4992238;28;20213;-82
2023/04/08 12:06:28;;;;;;;12.15;9.60;;;11.60;99.90;;;;;;5005168;28;20199;-83
2023/04/08 12:08:55;;;;;;;12.27;9.45;;;11.70;99.90;;;;;;5006655;28;20463;-83
2023/04/08 12:11:23;;;;;;;12.27;10.38;;;11.60;99.90;;;;;;4998049;28;20360;-83
2023/04/08 12:13:51;;;;;;;12.35;9.57;;;11.50;99.90;;;;;;4994078;28;20273;-81
2023/04/08 12:16:19;;;;;;;14.50;10.38;;;11.70;99.90;;;;;;4993125;28;20204;-83
2023/04/08 12:18:46;;;;;;;12.45;10.00;;;12.10;99.90;;;;;;5001822;28;20204;-84
2023/04/08 12:21:13;;;;;;;19.58;9.07;;;12.10;99.90;;;;;;5004969;28;20209;-83
2023/04/08 12:23:40;;;;;;;11.80;9.52;;;11.70;99.90;;;;;;4999917;28;20204;-83
2023/04/08 12:26:07;;;;;;;11.35;9.18;;;11.70;99.90;;;;;;5009416;28;20260;-82
2023/04/08 12:28:34;;;;;;;13.52;10.20;;;12.00;99.90;;;;;;4993840;28;20201;-83
2023/04/08 12:31:02;;;;;;;8.48;7.57;;;12.40;99.90;;;;;;5006270;28;20229;-81
2023/04/08 12:33:29;;;;;;;11.48;9.50;;;12.60;99.90;;;;;;5004919;28;20206;-83
2023/04/08 12:35:57;;;;;;;12.90;10.25;;;12.50;99.90;;;;;;5005362;28;20212;-82
2023/04/08 12:38:25;;;;;;;11.27;9.35;;;12.70;99.90;;;;;;5003516;28;20205;-82
2023/04/08 12:40:53;;;;;;;11.30;8.55;;;13.00;99.90;;;;;;5005116;28;20217;-83
2023/04/08 12:43:22;;;;;;;12.48;10.00;;;13.00;99.90;;;;;;5004350;28;20213;-82
2023/04/08 12:45:49;;;;;;;10.05;8.50;;;12.50;99.90;;;;;;4998800;28;20446;-81
2023/04/08 12:48:17;;;;;;;9.88;8.88;;;12.00;99.90;;;;;;5006330;28;20209;-81